createdAt,value
2019-05-11T00:01:38.070Z,41.14
2019-05-11T00:04:10.312Z,41.25
2019-05-11T00:06:41.853Z,41.18
2019-05-11T00:09:13.739Z,41.04
2019-05-11T00:11:44.490Z,41.23
2019-05-11T00:14:16.315Z,41.17
2019-05-11T00:16:47.899Z,40.90
2019-05-11T00:19:19.430Z,41.06
2019-05-11T00:21:51.530Z,41.19
2019-05-11T00:24:23.418Z,41.12
2019-05-11T00:26:55.781Z,41.15
2019-05-11T00:29:26.626Z,41.26
2019-05-11T00:31:58.520Z,41.12
2019-05-11T00:34:30.310Z,41.07
2019-05-11T00:37:02.456Z,41.07
2019-05-11T00:39:34.061Z,41.18
2019-05-11T00:42:05.816Z,41.16
2019-05-11T00:44:37.614Z,41.18
2019-05-11T00:47:08.719Z,40.95
2019-05-11T00:49:39.261Z,41.21
2019-05-11T00:52:10.887Z,41.20
2019-05-11T00:54:42.721Z,41.19
2019-05-11T00:57:13.503Z,41.26
2019-05-11T00:59:45.754Z,41.00
2019-05-11T01:02:16.481Z,41.11
2019-05-11T01:04:48.781Z,41.15
2019-05-11T01:07:20.768Z,41.20
2019-05-11T01:09:51.508Z,41.16
2019-05-11T01:12:23.322Z,41.12
2019-05-11T01:14:55.318Z,41.15
2019-05-11T01:17:27.748Z,41.20
2019-05-11T01:19:58.440Z,41.11
2019-05-11T01:22:30.285Z,40.97
2019-05-11T01:25:01.834Z,41.02
2019-05-11T01:27:33.393Z,41.15
2019-05-11T01:30:05.263Z,41.20
2019-05-11T01:32:37.097Z,41.15
2019-05-11T01:35:09.436Z,41.06
2019-05-11T01:37:41.304Z,41.01
2019-05-11T01:40:12.805Z,41.03
2019-05-11T01:42:44.381Z,41.15
2019-05-11T01:45:16.042Z,41.12
2019-05-11T01:47:48.398Z,41.16
2019-05-11T01:50:20.297Z,41.16
2019-05-11T01:52:52.067Z,41.06
2019-05-11T01:55:23.741Z,40.88
2019-05-11T01:57:54.488Z,40.79
2019-05-11T02:00:26.299Z,40.93
2019-05-11T02:03:51.419Z,41.02
2019-05-11T02:06:23.063Z,41.01
2019-05-11T02:08:55.271Z,40.96
2019-05-11T02:11:26.841Z,41.03
2019-05-11T02:13:58.642Z,40.86
2019-05-11T02:16:30.423Z,40.76
2019-05-11T02:19:02.315Z,40.76
2019-05-11T02:21:33.795Z,40.88
2019-05-11T02:24:06.310Z,40.98
2019-05-11T02:26:38.741Z,40.85
2019-05-11T02:29:09.732Z,41.00
2019-05-11T02:31:40.490Z,40.89
2019-05-11T02:34:12.301Z,40.89
2019-05-11T02:36:43.806Z,40.95
2019-05-11T02:39:15.567Z,40.92
2019-05-11T02:41:47.302Z,40.93
2019-05-11T02:44:19.307Z,41.04
2019-05-11T02:46:50.859Z,40.93
2019-05-11T02:49:22.777Z,40.91
2019-05-11T02:51:54.654Z,40.91
2019-05-11T02:54:26.652Z,41.04
2019-05-11T02:56:58.360Z,41.02
2019-05-11T02:59:30.311Z,41.02
2019-05-11T03:02:02.308Z,40.90
2019-05-11T03:04:34.293Z,40.98
2019-05-11T03:07:06.307Z,41.02
2019-05-11T03:09:37.843Z,40.97
2019-05-11T03:12:09.917Z,41.04
2019-05-11T03:14:41.725Z,41.08
2019-05-11T03:17:19.674Z,41.17
2019-05-11T03:19:50.612Z,41.06
2019-05-11T03:22:22.373Z,40.97
2019-05-11T03:24:54.750Z,40.99
2019-05-11T03:27:25.940Z,40.89
2019-05-11T03:30:00.679Z,40.96
2019-05-11T03:32:31.304Z,41.08
2019-05-11T03:35:03.052Z,41.02
2019-05-11T03:37:34.832Z,41.11
2019-05-11T03:40:08.062Z,41.07
2019-05-11T03:42:39.795Z,41.05
2019-05-11T03:45:11.743Z,41.06
2019-05-11T03:47:42.449Z,41.11
2019-05-11T03:50:14.296Z,40.98
2019-05-11T03:52:46.230Z,41.03
2019-05-11T03:55:17.751Z,41.05
2019-05-11T03:57:48.477Z,41.09
2019-05-11T04:02:42.212Z,41.02
2019-05-11T04:05:14.106Z,41.04
2019-05-11T04:07:45.741Z,40.92
2019-05-11T04:10:17.239Z,40.76
2019-05-11T04:12:48.819Z,40.87
2019-05-11T04:15:20.630Z,40.93
2019-05-11T04:17:52.363Z,40.78
2019-05-11T04:20:24.302Z,40.93
2019-05-11T04:22:55.863Z,40.93
2019-05-11T04:27:30.742Z,40.99
2019-05-11T04:30:01.461Z,40.99
2019-05-11T04:32:33.503Z,40.91
2019-05-11T04:35:06.307Z,40.62
2019-05-11T04:37:38.062Z,40.62
2019-05-11T04:40:10.780Z,40.84
2019-05-11T04:42:54.359Z,40.61
2019-05-11T04:45:16.339Z,40.88
2019-05-11T04:47:48.609Z,41.13
2019-05-11T04:50:21.301Z,40.91
2019-05-11T04:52:52.819Z,40.91
2019-05-11T04:55:24.761Z,40.99
2019-05-11T04:57:55.457Z,41.01
2019-05-11T05:00:27.357Z,41.13
2019-05-11T05:02:59.048Z,41.03
2019-05-11T05:05:31.307Z,40.99
2019-05-11T05:08:09.763Z,40.94
2019-05-11T05:10:36.893Z,40.43
2019-05-11T05:13:10.847Z,39.94
2019-05-11T05:15:42.370Z,39.43
2019-05-11T05:18:14.053Z,39.38
2019-05-11T05:20:45.763Z,39.19
2019-05-11T05:23:17.745Z,39.09
2019-05-11T05:25:49.396Z,38.88
2019-05-11T05:28:21.051Z,38.78
2019-05-11T05:30:52.791Z,38.67
2019-05-11T05:33:24.751Z,38.58
2019-05-11T05:35:55.465Z,38.64
2019-05-11T05:38:27.328Z,38.68
2019-05-11T05:40:58.889Z,38.78
2019-05-11T05:43:30.718Z,38.78
2019-05-11T05:46:01.463Z,38.98
2019-05-11T05:48:33.014Z,39.06
2019-05-11T05:51:04.734Z,39.19
2019-05-11T05:53:35.446Z,39.32
2019-05-11T05:56:07.293Z,39.36
2019-05-11T05:58:38.856Z,39.61
2019-05-11T06:01:10.715Z,39.63
2019-05-11T06:03:41.886Z,39.66
2019-05-11T06:06:13.774Z,39.66
2019-05-11T06:08:45.417Z,39.73
2019-05-11T06:11:17.356Z,39.94
2019-05-11T06:13:49.306Z,39.81
2019-05-11T06:16:20.881Z,39.91
2019-05-11T06:18:52.402Z,40.07
2019-05-11T06:21:24.300Z,40.11
2019-05-11T06:23:56.061Z,40.24
2019-05-11T06:26:27.753Z,40.26
2019-05-11T06:28:59.105Z,40.50
2019-05-11T06:31:32.794Z,40.64
2019-05-11T06:34:04.571Z,40.70
2019-05-11T06:36:35.740Z,40.82
2019-05-11T06:39:08.506Z,40.01
2019-05-11T06:41:40.558Z,39.64
2019-05-11T06:44:12.748Z,39.13
2019-05-11T06:46:43.652Z,39.13
2019-05-11T06:49:15.613Z,39.10
2019-05-11T06:51:47.334Z,39.12
2019-05-11T06:54:18.980Z,39.12
2019-05-11T06:56:50.746Z,39.11
2019-05-11T06:59:22.346Z,39.42
2019-05-11T07:01:54.306Z,39.43
2019-05-11T07:04:26.350Z,39.42
2019-05-11T07:06:57.905Z,39.42
2019-05-11T07:09:29.774Z,39.41
2019-05-11T07:12:00.714Z,39.42
2019-05-11T07:14:31.451Z,39.52
2019-05-11T07:17:03.333Z,39.54
2019-05-11T07:19:35.302Z,39.60
2019-05-11T07:22:06.870Z,39.66
2019-05-11T07:24:38.796Z,39.62
2019-05-11T07:27:13.615Z,39.94
2019-05-11T07:29:46.333Z,40.10
2019-05-11T07:32:24.999Z,40.10
2019-05-11T07:34:51.834Z,39.81
2019-05-11T07:37:24.326Z,39.82
2019-05-11T07:39:57.862Z,40.00
2019-05-11T07:42:29.389Z,40.27
2019-05-11T07:45:01.530Z,40.86
2019-05-11T07:47:33.302Z,40.62
2019-05-11T07:50:08.074Z,40.62
2019-05-11T07:52:39.411Z,40.80
2019-05-11T07:55:11.045Z,41.00
2019-05-11T07:57:42.768Z,41.04
2019-05-11T08:00:13.623Z,40.93
2019-05-11T08:02:47.852Z,40.67
2019-05-11T08:05:18.829Z,40.67
2019-05-11T08:07:50.658Z,40.82
2019-05-11T08:10:22.393Z,40.91
2019-05-11T08:12:54.302Z,40.91
2019-05-11T08:15:28.241Z,40.77
2019-05-11T08:17:59.740Z,40.71
2019-05-11T08:20:30.973Z,40.98
2019-05-11T08:23:02.775Z,40.90
2019-05-11T08:25:34.298Z,41.05
2019-05-11T08:28:11.553Z,41.04
2019-05-11T08:30:39.742Z,40.88
2019-05-11T08:33:10.612Z,41.22
2019-05-11T08:35:42.341Z,40.84
2019-05-11T08:38:14.054Z,40.84
2019-05-11T08:40:45.738Z,40.73
2019-05-11T08:43:17.968Z,40.99
2019-05-11T08:45:50.298Z,40.89
2019-05-11T08:48:21.910Z,41.25
2019-05-11T08:50:53.418Z,40.98
2019-05-11T08:53:25.053Z,41.21
2019-05-11T08:55:58.840Z,41.06
2019-05-11T08:58:30.328Z,41.52
2019-05-11T09:01:01.982Z,41.50
2019-05-11T09:03:33.758Z,41.46
2019-05-11T09:06:04.439Z,41.31
2019-05-11T09:08:38.628Z,41.10
2019-05-11T09:11:09.753Z,41.50
2019-05-11T09:13:41.388Z,41.03
2019-05-11T09:16:15.740Z,41.69
2019-05-11T09:18:47.921Z,41.31
2019-05-11T09:21:20.297Z,41.79
2019-05-11T09:23:51.867Z,41.55
2019-05-11T09:26:23.770Z,42.71
2019-05-11T09:28:54.869Z,41.88
2019-05-11T09:31:27.932Z,41.71
2019-05-11T09:34:00.358Z,41.67
2019-05-11T09:36:32.108Z,41.40
2019-05-11T09:39:03.897Z,41.94
2019-05-11T09:41:38.107Z,41.74
2019-05-11T09:44:09.306Z,41.65
2019-05-11T09:46:40.865Z,41.71
2019-05-11T09:49:13.560Z,41.80
2019-05-11T09:51:48.241Z,42.09
2019-05-11T09:54:19.854Z,42.09
2019-05-11T09:56:51.618Z,42.02
2019-05-11T09:59:23.369Z,42.24
2019-05-11T10:01:55.268Z,42.24
2019-05-11T10:04:28.839Z,42.13
2019-05-11T10:07:00.749Z,41.98
2019-05-11T10:09:31.477Z,42.22
2019-05-11T10:12:03.271Z,42.02
2019-05-11T10:14:34.882Z,42.02
2019-05-11T10:17:07.732Z,41.55
2019-05-11T10:19:40.316Z,42.02
2019-05-11T10:22:12.618Z,42.35
2019-05-11T10:24:44.753Z,42.16
2019-05-11T10:27:18.717Z,41.82
2019-05-11T10:29:49.883Z,42.37
2019-05-11T10:32:21.737Z,41.97
2019-05-11T10:34:52.516Z,42.31
2019-05-11T10:40:04.309Z,42.26
2019-05-11T10:43:40.376Z,42.69
2019-05-11T10:46:19.488Z,42.69
2019-05-11T10:48:45.331Z,42.59
2019-05-11T10:51:18.393Z,41.93
2019-05-11T10:53:52.067Z,42.25
2019-05-11T10:56:23.782Z,42.25
2019-05-11T10:58:55.465Z,42.23
2019-05-11T11:01:28.547Z,41.64
2019-05-11T11:03:59.466Z,42.11
2019-05-11T11:06:31.306Z,42.37
2019-05-11T11:09:02.837Z,42.23
2019-05-11T11:11:34.365Z,42.00
2019-05-11T11:14:08.528Z,42.15
2019-05-11T11:16:42.851Z,42.33
2019-05-11T11:19:13.339Z,42.66
2019-05-11T11:21:45.065Z,42.53
2019-05-11T11:24:17.916Z,42.29
2019-05-11T11:26:49.844Z,42.48
2019-05-11T11:29:21.578Z,43.51
2019-05-11T11:31:53.398Z,42.82
2019-05-11T11:34:25.308Z,42.82
2019-05-11T11:36:58.083Z,42.35
2019-05-11T11:39:29.823Z,42.81
2019-05-11T11:42:02.335Z,42.70
2019-05-11T11:44:34.626Z,42.25
2019-05-11T11:47:08.692Z,42.69
2019-05-11T11:49:40.363Z,42.69
2019-05-11T11:52:12.769Z,42.45
2019-05-11T11:54:43.452Z,42.33
2019-05-11T11:57:15.263Z,42.14
2019-05-11T11:59:48.075Z,42.40
2019-05-11T12:02:20.067Z,42.04
2019-05-11T12:04:51.780Z,42.81
2019-05-11T12:07:22.522Z,43.96
2019-05-11T12:09:54.473Z,42.64
2019-05-11T12:12:27.876Z,43.28
2019-05-11T12:14:59.897Z,43.32
2019-05-11T12:17:31.753Z,43.32
2019-05-11T12:20:03.309Z,43.59
2019-05-11T12:22:35.305Z,43.89
2019-05-11T12:25:07.966Z,43.99
2019-05-11T12:27:39.859Z,44.01
2019-05-11T12:30:11.773Z,43.97
2019-05-11T12:32:48.764Z,44.10
2019-05-11T12:35:21.302Z,43.93
2019-05-11T12:37:53.309Z,44.36
2019-05-11T12:40:25.014Z,44.52
2019-05-11T12:42:58.410Z,44.66
2019-05-11T12:45:30.370Z,44.80
2019-05-11T12:48:02.439Z,45.04
2019-05-11T12:50:34.305Z,45.28
2019-05-11T12:53:08.002Z,45.12
2019-05-11T12:55:39.749Z,45.02
2019-05-11T12:58:10.481Z,44.87
2019-05-11T13:00:42.302Z,44.90
2019-05-11T13:03:14.302Z,44.28
2019-05-11T13:05:48.240Z,44.15
2019-05-11T13:08:19.397Z,42.40
2019-05-11T13:10:51.309Z,42.40
2019-05-11T13:13:23.259Z,42.19
2019-05-11T13:15:54.906Z,42.02
2019-05-11T13:18:27.908Z,41.86
2019-05-11T13:20:59.752Z,41.51
2019-05-11T13:23:30.478Z,41.36
2019-05-11T13:26:02.367Z,41.26
2019-05-11T13:28:34.022Z,41.15
2019-05-11T13:44:20.052Z,41.43
2019-05-11T13:46:51.774Z,41.28
2019-05-11T13:49:22.469Z,41.49
2019-05-11T13:51:54.288Z,41.14
2019-05-11T13:54:26.358Z,41.67
2019-05-11T13:56:58.545Z,41.75
2019-05-11T13:59:30.318Z,41.35
2019-05-11T14:02:02.068Z,41.35
2019-05-11T14:04:34.077Z,41.48
2019-05-11T14:07:07.886Z,41.60
2019-05-11T14:09:39.365Z,41.62
2019-05-11T14:12:11.069Z,41.78
2019-05-11T14:14:43.066Z,41.80
2019-05-11T14:17:14.740Z,41.63
2019-05-11T14:19:49.360Z,42.56
2019-05-11T14:22:19.776Z,42.25
2019-05-11T14:24:51.650Z,42.08
2019-05-11T14:27:23.778Z,42.51
2019-05-11T14:29:57.339Z,42.51
2019-05-11T14:32:29.381Z,41.87
2019-05-11T14:35:01.304Z,42.36
2019-05-11T14:37:32.845Z,42.12
2019-05-11T14:40:04.446Z,42.05
2019-05-11T14:42:38.266Z,41.88
2019-05-11T14:45:09.787Z,42.04
2019-05-11T14:47:42.579Z,42.17
2019-05-11T14:50:14.289Z,42.36
2019-05-11T14:52:45.850Z,42.07
2019-05-11T14:55:18.390Z,42.23
2019-05-11T14:57:49.459Z,44.06
2019-05-11T15:00:21.298Z,44.06
2019-05-11T15:02:53.350Z,43.60
2019-05-11T15:05:25.060Z,43.66
2019-05-11T15:07:58.233Z,43.31
2019-05-11T15:10:30.791Z,43.23
2019-05-11T15:13:02.849Z,42.88
2019-05-11T15:15:34.750Z,42.33
2019-05-11T15:18:05.753Z,42.94
2019-05-11T15:20:38.749Z,43.10
2019-05-11T15:23:10.714Z,43.23
2019-05-11T15:25:41.492Z,43.33
2019-05-11T15:28:13.302Z,43.40
2019-05-11T15:30:44.824Z,43.49
2019-05-11T15:33:18.279Z,43.60
2019-05-11T15:35:50.313Z,43.63
2019-05-11T15:38:22.296Z,43.54
2019-05-11T15:40:54.427Z,43.71
2019-05-11T15:43:28.267Z,43.89
2019-05-11T15:46:00.440Z,43.97
2019-05-11T15:48:32.425Z,44.09
2019-05-11T15:51:04.041Z,44.16
2019-05-11T15:53:35.739Z,44.23
2019-05-11T15:56:08.628Z,44.59
2019-05-11T15:58:39.798Z,44.39
2019-05-11T16:01:11.380Z,44.51
2019-05-11T16:03:43.066Z,44.87
2019-05-11T16:06:14.778Z,44.58
2019-05-11T16:09:11.425Z,44.24
2019-05-11T16:11:43.615Z,44.24
2019-05-11T16:14:15.492Z,42.82
2019-05-11T16:16:48.040Z,42.82
2019-05-11T16:19:20.071Z,41.88
2019-05-11T16:21:51.778Z,41.43
2019-05-11T16:24:23.610Z,41.28
2019-05-11T16:26:58.183Z,41.49
2019-05-11T16:29:29.378Z,41.49
2019-05-11T16:32:01.373Z,41.96
2019-05-11T16:34:33.080Z,41.57
2019-05-11T16:37:05.461Z,41.80
2019-05-11T16:39:38.546Z,41.67
2019-05-11T16:42:09.444Z,41.86
2019-05-11T16:44:41.769Z,42.28
2019-05-11T16:47:12.476Z,41.85
2019-05-11T16:49:44.310Z,41.79
2019-05-11T16:52:18.307Z,41.83
2019-05-11T16:54:49.802Z,42.28
2019-05-11T16:57:21.458Z,42.06
2019-05-11T16:59:53.058Z,42.01
2019-05-11T17:02:24.764Z,42.21
2019-05-11T17:04:55.563Z,42.05
2019-05-11T17:07:29.831Z,41.91
2019-05-11T17:10:00.642Z,42.62
2019-05-11T17:12:32.370Z,43.97
2019-05-11T17:15:04.328Z,43.97
2019-05-11T17:17:35.895Z,44.07
2019-05-11T17:20:08.086Z,43.97
2019-05-11T17:22:39.754Z,43.98
2019-05-11T17:25:10.902Z,43.42
2019-05-11T17:27:42.779Z,43.45
2019-05-11T17:30:18.855Z,43.47
2019-05-11T17:32:50.189Z,42.99
2019-05-11T17:35:21.870Z,43.61
2019-05-11T17:37:53.725Z,43.64
2019-05-11T17:40:24.498Z,43.55
2019-05-11T17:42:58.317Z,43.52
2019-05-11T17:45:29.761Z,43.12
2019-05-11T17:48:00.492Z,43.25
2019-05-11T17:50:32.305Z,43.47
2019-05-11T17:53:03.911Z,43.68
2019-05-11T17:55:38.074Z,43.64
2019-05-11T17:58:09.301Z,43.50
2019-05-11T18:00:41.069Z,43.55
2019-05-11T18:03:12.753Z,43.04
2019-05-11T18:05:43.496Z,42.41
2019-05-11T18:08:15.567Z,42.03
2019-05-11T18:10:47.999Z,41.10
2019-05-11T18:13:19.728Z,41.10
2019-05-11T18:15:51.347Z,41.17
2019-05-11T18:18:24.237Z,41.08
2019-05-11T18:20:57.863Z,41.14
2019-05-11T18:23:29.761Z,41.00
2019-05-11T18:26:00.482Z,41.14
2019-05-11T18:28:32.306Z,41.20
2019-05-11T18:31:03.886Z,41.35
2019-05-11T18:33:38.035Z,41.51
2019-05-11T18:36:09.398Z,41.43
2019-05-11T18:38:41.402Z,41.49
2019-05-11T18:41:13.292Z,41.67
2019-05-11T18:43:44.867Z,41.63
2019-05-11T18:46:16.397Z,41.58
2019-05-11T18:48:48.721Z,41.65
2019-05-11T18:51:19.711Z,41.57
2019-05-11T18:53:50.503Z,41.88
2019-05-11T18:56:22.305Z,41.82
2019-05-11T18:58:53.858Z,41.89
2019-05-11T19:01:25.728Z,41.90
2019-05-11T19:03:59.998Z,41.86
2019-05-11T19:06:31.303Z,41.78
2019-05-11T19:09:03.070Z,41.78
2019-05-11T19:11:34.820Z,42.00
2019-05-11T19:14:08.607Z,41.84
2019-05-11T19:16:40.365Z,41.93
2019-05-11T19:19:12.058Z,41.93
2019-05-11T19:21:43.722Z,41.96
2019-05-11T19:24:14.506Z,42.14
2019-05-11T19:26:48.130Z,42.08
2019-05-11T19:29:20.629Z,42.09
2019-05-11T19:31:51.673Z,42.23
2019-05-11T19:34:22.268Z,42.17
2019-05-11T19:36:53.868Z,42.26
2019-05-11T19:39:25.395Z,42.35
2019-05-11T19:41:58.087Z,42.32
2019-05-11T19:44:30.052Z,42.21
2019-05-11T19:47:01.794Z,42.34
2019-05-11T19:49:32.472Z,42.17
2019-05-11T19:52:04.309Z,42.41
2019-05-11T19:54:38.128Z,42.41
2019-05-11T19:57:08.524Z,42.39
2019-05-11T19:59:40.347Z,42.32
2019-05-11T20:02:12.326Z,42.32
2019-05-11T20:04:43.872Z,42.60
2019-05-11T20:07:17.711Z,42.43
2019-05-11T20:09:48.753Z,42.26
2019-05-11T20:12:19.478Z,42.25
2019-05-11T20:14:51.366Z,42.43
2019-05-11T20:17:23.073Z,42.26
2019-05-11T20:19:54.777Z,42.23
2019-05-11T20:22:28.112Z,42.18
2019-05-11T20:25:00.030Z,42.44
2019-05-11T20:27:31.798Z,42.54
2019-05-11T20:30:03.707Z,42.47
2019-05-11T20:32:34.490Z,42.49
2019-05-11T20:35:08.404Z,42.49
2019-05-11T20:37:39.744Z,42.47
2019-05-11T20:40:10.501Z,42.36
2019-05-11T20:42:42.300Z,42.26
2019-05-11T20:45:14.336Z,42.52
2019-05-11T20:47:48.710Z,42.43
2019-05-11T20:50:20.326Z,42.59
2019-05-11T20:52:52.387Z,42.59
2019-05-11T20:55:24.034Z,42.36
2019-05-11T20:57:57.787Z,42.33
2019-05-11T21:00:29.375Z,42.36
2019-05-11T21:03:01.075Z,42.36
2019-05-11T21:05:33.402Z,42.43
2019-05-11T21:08:05.310Z,42.38
2019-05-11T21:10:38.604Z,42.40
2019-05-11T21:13:10.687Z,42.33
2019-05-11T21:15:42.779Z,42.33
2019-05-11T21:18:14.725Z,42.13
2019-05-11T21:20:45.446Z,42.45
2019-05-11T21:23:18.598Z,42.28
2019-05-11T21:25:50.757Z,42.13
2019-05-11T21:28:22.378Z,42.17
2019-05-11T21:30:54.319Z,42.22
2019-05-11T21:33:28.209Z,42.29
2019-05-11T21:36:00.749Z,42.31
2019-05-11T21:38:32.810Z,42.31
2019-05-11T21:41:03.478Z,42.25
2019-05-11T21:43:37.665Z,42.18
2019-05-11T21:46:08.675Z,42.33
2019-05-11T21:48:39.461Z,42.42
2019-05-11T21:51:11.067Z,42.42
2019-05-11T21:53:42.763Z,42.43
2019-05-11T21:56:13.467Z,42.49
2019-05-11T21:58:45.069Z,42.59
2019-05-11T22:01:20.155Z,42.59
2019-05-11T22:03:50.318Z,42.60
2019-05-11T22:06:21.843Z,42.49
2019-05-11T22:08:53.772Z,42.47
2019-05-11T22:11:24.503Z,42.30
2019-05-11T22:13:57.901Z,42.38
2019-05-11T22:16:30.373Z,42.59
2019-05-11T22:19:02.623Z,42.60
2019-05-11T22:21:34.754Z,42.53
2019-05-11T22:24:05.445Z,42.53
2019-05-11T22:26:37.955Z,42.41
2019-05-11T22:29:09.766Z,42.57
2019-05-11T22:31:42.240Z,42.25
2019-05-11T22:34:13.832Z,42.47
2019-05-11T22:36:47.854Z,42.36
2019-05-11T22:39:20.852Z,42.22
2019-05-11T22:41:52.538Z,42.34
2019-05-11T22:44:24.322Z,42.35
2019-05-11T22:46:58.117Z,42.45
2019-05-11T22:49:29.344Z,42.34
2019-05-11T22:52:01.082Z,42.34
2019-05-11T22:54:32.935Z,42.30
2019-05-11T22:57:04.758Z,42.23
2019-05-11T22:59:35.458Z,42.25
2019-05-11T23:02:07.697Z,42.32
2019-05-11T23:04:40.713Z,42.38
2019-05-11T23:07:11.481Z,42.27
2019-05-11T23:09:43.411Z,42.28
2019-05-11T23:12:17.862Z,42.33
2019-05-11T23:14:52.323Z,42.34
2019-05-11T23:17:23.825Z,42.23
2019-05-11T23:19:57.898Z,42.23
2019-05-11T23:22:29.044Z,42.32
2019-05-11T23:25:00.778Z,42.24
2019-05-11T23:27:31.501Z,42.21
2019-05-11T23:30:03.621Z,42.15
2019-05-11T23:32:34.686Z,42.12
2019-05-11T23:35:08.177Z,42.25
2019-05-11T23:37:42.140Z,42.18
2019-05-11T23:40:12.762Z,42.26
2019-05-11T23:42:43.467Z,42.04
2019-05-11T23:45:15.312Z,42.25
2019-05-11T23:47:48.665Z,42.16
2019-05-11T23:50:20.740Z,42.00
2019-05-11T23:53:05.408Z,42.31
2019-05-11T23:55:24.870Z,42.27
2019-05-11T23:57:57.668Z,42.36
